»·PEaware :: N921VN KCHD-KDVT

N921VN :: KCHD-KDVT

FLIGHT INFORMATION

Flight Status: Arrived
Operator: Privately registered:
United States
More flights under this callsign
Pilot: Kevin M. (7)
Aircraft: CESSNA 172 SKYHAWK
(C172)
More flights by this aircraft type
Origin: KCHD Chandler Mun
United States
Destination: KDVT Phoenix Deer Valley
United States
More flights between these airports :: More routes between these airports
Route:
File this flight plan on PilotEdge
Remarks: alphabet challenge
Altitude:
(Current/Filed)
4,500ft
Speed:
(Current/Filed)
150kts
Departed: 29-Sep-20 09:05 AM
Arrived: 29-Sep-20 09:25 AM
Distance/Time
Traveled:
28nm/0:20
Distance/Time
To Go:
Arrived

Flight Plot

Page will automatically refresh every two minutes.

Flight plan parsing failed; only flown route is shown


Map Options




Map Legend


Flown Route
Filed Route
Departure Airport
Arrival Airport
Navaid (VOR, NDB)
Fix

Horizontal Profiles

Position Reports

Time Latitude Longitude Heading Altitude Ground
Speed
29-Sep-20 08:08 33.273161 -111.810839 269 1238ft 0kts
29-Sep-20 08:09 33.273161 -111.810839 269 1238ft 0kts
29-Sep-20 08:10 33.273161 -111.810839 269 1238ft 0kts
29-Sep-20 08:11 33.273161 -111.810839 269 1238ft 0kts
29-Sep-20 08:12 33.273161 -111.810839 269 1238ft 0kts
29-Sep-20 08:13 33.273102 -111.810369 139 1239ft 8kts
29-Sep-20 08:14 33.272806 -111.810045 136 1239ft 0kts
29-Sep-20 08:15 33.272806 -111.810045 136 1239ft 0kts
29-Sep-20 08:16 33.272806 -111.810045 136 1239ft 0kts
29-Sep-20 08:17 33.272806 -111.810045 136 1239ft 0kts
29-Sep-20 08:18 33.272806 -111.810045 136 1239ft 0kts
29-Sep-20 08:19 33.272806 -111.810045 136 1239ft 0kts
29-Sep-20 08:20 33.272806 -111.810045 136 1239ft 0kts
29-Sep-20 08:21 33.272806 -111.810045 136 1239ft 0kts
29-Sep-20 08:22 33.272806 -111.810045 136 1239ft 0kts
29-Sep-20 08:23 33.272806 -111.810045 136 1239ft 0kts
29-Sep-20 08:24 33.272806 -111.810045 136 1239ft 0kts
29-Sep-20 08:25 33.272806 -111.810045 136 1239ft 0kts
29-Sep-20 08:26 33.272806 -111.810045 136 1239ft 0kts
29-Sep-20 08:27 33.272806 -111.810045 136 1239ft 0kts
29-Sep-20 08:28 33.272806 -111.810045 136 1239ft 0kts
29-Sep-20 08:29 33.272806 -111.810045 136 1239ft 0kts
29-Sep-20 08:30 33.272806 -111.810045 136 1239ft 0kts
29-Sep-20 08:31 33.272806 -111.810045 136 1239ft 0kts
29-Sep-20 08:32 33.272806 -111.810045 136 1239ft 0kts
29-Sep-20 08:33 33.272806 -111.810045 136 1239ft 0kts
29-Sep-20 08:34 33.272806 -111.810045 136 1239ft 0kts
29-Sep-20 08:35 33.272806 -111.810045 136 1239ft 0kts
29-Sep-20 08:36 33.272806 -111.810045 136 1239ft 0kts
29-Sep-20 08:37 33.272806 -111.810045 136 1239ft 0kts
29-Sep-20 08:38 33.272806 -111.810045 136 1239ft 0kts
29-Sep-20 08:39 33.272806 -111.810045 136 1239ft 0kts
29-Sep-20 08:40 33.272806 -111.810045 136 1239ft 0kts
29-Sep-20 08:41 33.272806 -111.810045 136 1239ft 0kts
29-Sep-20 08:42 33.272806 -111.810045 136 1239ft 0kts
29-Sep-20 08:43 33.272806 -111.810045 136 1239ft 0kts
29-Sep-20 08:44 33.272806 -111.810045 136 1239ft 0kts
29-Sep-20 08:45 33.272806 -111.810045 136 1239ft 0kts
29-Sep-20 08:46 33.272806 -111.810045 136 1239ft 0kts
29-Sep-20 08:47 33.272806 -111.810045 136 1239ft 0kts
29-Sep-20 08:48 33.272806 -111.810045 136 1239ft 0kts
29-Sep-20 08:49 33.272806 -111.810045 136 1239ft 0kts
29-Sep-20 08:50 33.272806 -111.810045 136 1239ft 0kts
29-Sep-20 08:51 33.272806 -111.810045 136 1239ft 0kts
29-Sep-20 08:52 33.272806 -111.810045 136 1239ft 0kts
29-Sep-20 08:53 33.272806 -111.810045 136 1239ft 0kts
29-Sep-20 08:54 33.272806 -111.810045 136 1239ft 0kts
29-Sep-20 08:55 33.272806 -111.810045 136 1239ft 0kts
29-Sep-20 08:56 33.272806 -111.810045 136 1239ft 0kts
29-Sep-20 08:57 33.272806 -111.810045 136 1239ft 0kts
29-Sep-20 08:58 33.272774 -111.810015 147 1239ft 3kts
29-Sep-20 08:59 33.269606 -111.813491 226 1235ft 24kts
29-Sep-20 09:00 33.266243 -111.817717 140 1235ft 0kts
29-Sep-20 09:01 33.266054 -111.817473 105 1234ft 0kts
29-Sep-20 09:02 33.266054 -111.817473 105 1234ft 0kts
29-Sep-20 09:03 33.266132 -111.817147 55 1233ft 12kts
29-Sep-20 09:04 33.277633 -111.802446 30 1542ft 80kts
29-Sep-20 09:05 33.282659 -111.824982 279 2134ft 87kts
29-Sep-20 09:06 33.282168 -111.852741 260 2722ft 82kts
29-Sep-20 09:07 33.271448 -111.874951 214 3197ft 80kts
29-Sep-20 09:08 33.277003 -111.902224 317 3304ft 100kts
29-Sep-20 09:09 33.302096 -111.923648 337 3492ft 111kts
29-Sep-20 09:11 33.332069 -111.936077 340 3535ft 121kts
29-Sep-20 09:12 33.352718 -111.943493 334 3915ft 108kts
29-Sep-20 09:13 33.364412 -111.978516 290 4032ft 119kts
29-Sep-20 09:14 33.381838 -112.013124 310 4114ft 118kts
29-Sep-20 09:15 33.409411 -112.030586 348 4396ft 110kts
29-Sep-20 09:16 33.440241 -112.028617 17 4540ft 116kts
29-Sep-20 09:17 33.472231 -112.015916 15 4410ft 123kts
29-Sep-20 09:18 33.506009 -112.013817 350 4357ft 122kts
29-Sep-20 09:19 33.537815 -112.029063 342 4149ft 128kts
29-Sep-20 09:20 33.571691 -112.041056 359 3926ft 128kts
29-Sep-20 09:21 33.605008 -112.056131 339 3569ft 131kts
29-Sep-20 09:22 33.639924 -112.072922 344 2984ft 135kts
29-Sep-20 09:23 33.666956 -112.099470 279 2317ft 133kts
29-Sep-20 09:24 33.686509 -112.103315 95 1688ft 105kts
29-Sep-20 09:25 33.686698 -112.084590 85 1461ft 14kts
29-Sep-20 09:25 33.686708 -112.081261 237 1465ft 8kts
29-Sep-20 09:27 33.686688 -112.081308 246 1465ft 0kts
29-Sep-20 09:28 33.686688 -112.081308 246 1465ft 0kts
29-Sep-20 09:28 33.686688 -112.081308 246 1465ft 0kts
29-Sep-20 09:29 33.686688 -112.081308 246 1465ft 0kts
29-Sep-20 09:31 33.686688 -112.081308 246 1465ft 0kts
29-Sep-20 09:31 33.686688 -112.081308 246 1465ft 0kts
29-Sep-20 09:32 33.686688 -112.081308 246 1465ft 0kts
29-Sep-20 09:34 33.686688 -112.081308 246 1465ft 0kts
29-Sep-20 09:34 33.686688 -112.081308 246 1465ft 0kts
29-Sep-20 09:35 33.686688 -112.081308 246 1465ft 0kts
29-Sep-20 09:36 33.686688 -112.081308 246 1465ft 0kts
29-Sep-20 09:37 33.686688 -112.081308 246 1465ft 0kts
29-Sep-20 09:38 33.686688 -112.081308 246 1465ft 0kts

Navigation Log

Ident Type
Flight plan parsing failed, navigation log unavailable